Time;durP1;ratioP1;P1;durP2;ratioP2;P2;SDS_P1;SDS_P2;PMS_P1;PMS_P2;Temp;Humidity;BMP_temperature;BMP_pressure;BME280_temperature;BME280_humidity;BME280_pressure;Samples;Min_cycle;Max_cycle;Signal;HPM_P1;HPM_P2
2021/07/20 00:01:29;;;;;;;;;0.00;0.00;;;;;29.65;88.85;101321.25;5041851;28;45224;-66
2021/07/20 00:03:54;;;;;;;;;0.00;0.00;;;;;29.62;88.62;101327.09;5041844;28;45268;-66
2021/07/20 00:06:20;;;;;;;;;0.00;0.00;;;;;29.61;88.37;101321.91;5041884;28;45382;-67
2021/07/20 00:08:45;;;;;;;;;0.00;0.00;;;;;29.62;88.28;101326.28;5041600;28;45636;-67
2021/07/20 00:11:11;;;;;;;;;0.00;0.00;;;;;29.55;88.20;101323.69;5041894;28;45200;-67
2021/07/20 00:13:36;;;;;;;;;0.00;0.00;;;;;29.53;88.92;101320.38;5041719;28;45288;-67
2021/07/20 00:16:02;;;;;;;;;0.00;0.00;;;;;29.42;89.50;101318.47;5041809;28;45565;-67
2021/07/20 00:18:31;;;;;;;;;0.00;0.00;;;;;29.35;90.77;101313.16;5023426;28;46220;-67
2021/07/20 00:20:58;;;;;;;;;0.00;0.00;;;;;29.29;90.40;101313.22;5032980;28;45472;-68
2021/07/20 00:23:23;;;;;;;;;0.00;0.00;;;;;29.22;90.64;101311.47;5041355;28;45284;-68
2021/07/20 00:25:50;;;;;;;;;0.00;0.00;;;;;29.17;90.64;101313.19;5022875;28;45236;-67
2021/07/20 00:28:17;;;;;;;;;0.00;0.00;;;;;29.13;92.71;101312.81;5041351;28;47214;-68
2021/07/20 00:30:43;;;;;;;;;0.00;0.00;;;;;29.11;91.51;101312.22;5019697;28;46358;-68
2021/07/20 00:33:08;;;;;;;;;0.00;0.00;;;;;29.06;92.40;101320.16;5021502;28;45363;-68
2021/07/20 00:35:34;;;;;;;;;0.00;0.00;;;;;29.02;92.29;101310.88;5020265;28;45561;-68
2021/07/20 00:37:59;;;;;;;;;0.00;0.00;;;;;29.01;91.88;101310.03;5020832;28;46210;-68
2021/07/20 00:40:27;;;;;;;;;0.00;0.00;;;;;28.94;92.25;101306.59;5021128;28;45319;-68
2021/07/20 00:42:53;;;;;;;;;0.00;0.00;;;;;28.91;92.92;101306.22;5006881;28;45229;-67
2021/07/20 00:45:19;;;;;;;;;0.00;0.00;;;;;28.86;91.80;101315.03;5021600;28;45201;-69
2021/07/20 00:47:46;;;;;;;;;0.00;0.00;;;;;28.88;92.84;101301.25;5021061;28;45376;-69
2021/07/20 00:50:14;;;;;;;;;0.00;0.00;;;;;28.89;93.03;101303.75;5021255;28;45250;-67
2021/07/20 00:52:40;;;;;;;;;0.00;0.00;;;;;28.82;93.15;101298.41;5020960;28;45353;-67
2021/07/20 00:55:07;;;;;;;;;0.00;0.00;;;;;28.79;93.53;101311.56;5021332;28;45260;-67
2021/07/20 00:57:33;;;;;;;;;0.00;0.00;;;;;28.75;94.03;101307.69;5020854;28;45403;-67
2021/07/20 00:59:59;;;;;;;;;0.00;0.00;;;;;28.75;94.10;101313.09;5020795;28;45415;-66
2021/07/20 01:02:25;;;;;;;;;0.00;0.00;;;;;28.68;95.38;101313.13;5021032;28;45285;-66
2021/07/20 01:04:50;;;;;;;;;0.00;0.00;;;;;28.64;94.20;101303.84;5020143;28;45181;-67
2021/07/20 01:07:18;;;;;;;;;0.00;0.00;;;;;28.68;93.82;101309.63;5020813;28;45281;-66
2021/07/20 01:09:44;;;;;;;;;0.00;0.00;;;;;28.60;95.80;101311.56;5021217;28;45338;-67
2021/07/20 01:12:10;;;;;;;;;0.00;0.00;;;;;28.57;94.10;101308.50;5020910;28;45371;-67
2021/07/20 01:14:35;;;;;;;;;0.00;0.00;;;;;28.55;95.73;101305.19;5021162;28;45332;-68
2021/07/20 01:17:02;;;;;;;;;0.00;0.00;;;;;28.56;94.46;101310.38;5014750;28;46143;-68
2021/07/20 01:19:34;;;;;;;;;0.00;0.00;;;;;28.53;96.90;101309.97;5001208;28;45238;-68
2021/07/20 01:22:01;;;;;;;;;0.00;0.00;;;;;28.54;95.27;101308.94;5008349;28;45376;-68
2021/07/20 01:24:26;;;;;;;;;0.00;0.00;;;;;28.55;95.41;101307.88;5021139;28;45418;-68
2021/07/20 01:26:53;;;;;;;;;0.00;0.00;;;;;28.56;94.36;101310.38;5020804;28;46050;-68
2021/07/20 01:29:21;;;;;;;;;0.00;0.00;;;;;28.49;96.76;101309.63;5020428;28;45353;-69
2021/07/20 01:31:48;;;;;;;;;0.00;0.00;;;;;28.46;96.59;101322.72;5040013;28;45498;-67
2021/07/20 01:34:14;;;;;;;;;0.00;0.00;;;;;28.60;95.12;101305.34;5040912;28;45498;-72
2021/07/20 01:36:44;;;;;;;;;0.00;0.00;;;;;28.68;93.97;101315.84;5041195;28;46313;-70
2021/07/20 01:39:11;;;;;;;;;0.00;0.00;;;;;28.67;93.94;101319.59;5043972;28;45254;-71
2021/07/20 01:41:41;;;;;;;;;0.00;0.00;;;;;28.64;95.47;101320.06;5044424;28;45397;-71
2021/07/20 01:44:09;;;;;;;;;0.00;0.00;;;;;28.64;95.18;101311.97;5026367;28;45197;-69
2021/07/20 01:46:37;;;;;;;;;0.00;0.00;;;;;28.63;93.96;101311.13;5026267;28;47278;-70
2021/07/20 01:49:12;;;;;;;;;0.00;0.00;;;;;28.61;94.75;101317.81;5044031;28;45436;-71
2021/07/20 01:51:39;;;;;;;;;0.00;0.00;;;;;28.70;93.82;101313.75;5025880;28;45358;-69
2021/07/20 01:54:05;;;;;;;;;0.00;0.00;;;;;28.67;93.50;101316.91;5044239;28;45402;-70
2021/07/20 01:56:31;;;;;;;;;0.00;0.00;;;;;28.67;94.24;101316.91;5043561;28;45572;-66
2021/07/20 01:58:56;;;;;;;;;0.00;0.00;;;;;28.64;94.22;101314.66;5043654;28;45315;-67
2021/07/20 02:01:26;;;;;;;;;0.00;0.00;;;;;28.62;95.36;101314.06;5043807;28;45355;-67
2021/07/20 02:09:25;;;;;;;;;0.00;0.00;;;;;28.67;94.27;101316.09;5043696;28;45399;-68
2021/07/20 02:11:54;;;;;;;;;0.00;0.00;;;;;28.70;92.60;101318.31;5043608;28;45328;-68
2021/07/20 02:14:23;;;;;;;;;0.00;0.00;;;;;28.60;93.76;101316.97;5043872;28;45256;-68
2021/07/20 02:16:50;;;;;;;;;0.00;0.00;;;;;28.58;93.31;101315.56;5031527;28;46298;-68
2021/07/20 02:19:17;;;;;;;;;0.00;0.00;;;;;28.54;93.74;101317.88;5005645;28;45509;-68
2021/07/20 02:21:50;;;;;;;;;0.00;0.00;;;;;28.59;94.73;101314.50;5023590;28;45320;-68
2021/07/20 02:24:18;;;;;;;;;0.00;0.00;;;;;28.62;93.97;101316.75;5023886;28;45256;-72
2021/07/20 02:26:45;;;;;;;;;0.00;0.00;;;;;28.10;95.49;101318.91;5024892;28;45364;-71
2021/07/20 02:29:11;;;;;;;;;0.00;0.00;;;;;27.98;96.55;101322.31;5043415;28;45415;-68
2021/07/20 02:31:38;;;;;;;;;0.00;0.00;;;;;27.97;97.47;101333.34;5043312;28;45285;-67
2021/07/20 02:34:04;;;;;;;;;0.00;0.00;;;;;27.90;97.58;101321.78;5043391;28;45354;-68
2021/07/20 02:36:31;;;;;;;;;0.00;0.00;;;;;27.90;97.13;101321.78;5043231;28;46531;-68
2021/07/20 02:38:57;;;;;;;;;0.00;0.00;;;;;27.85;98.13;101322.44;5043176;28;45441;-67
2021/07/20 02:41:25;;;;;;;;;0.00;0.00;;;;;27.83;98.17;101322.63;5043502;28;45325;-68
2021/07/20 02:43:52;;;;;;;;;0.00;0.00;;;;;27.76;98.68;101316.47;5025407;28;45474;-67
2021/07/20 02:46:17;;;;;;;;;0.00;0.00;;;;;27.70;99.28;101317.31;5024989;28;47366;-67
2021/07/20 02:48:43;;;;;;;;;0.00;0.00;;;;;27.70;98.94;101316.50;5024777;28;45956;-68
2021/07/20 02:51:10;;;;;;;;;0.00;0.00;;;;;27.59;99.97;101309.94;5042711;28;45351;-67
2021/07/20 02:53:39;;;;;;;;;0.00;0.00;;;;;27.53;100.00;101319.72;5043518;28;45335;-67
2021/07/20 02:56:07;;;;;;;;;0.00;0.00;;;;;27.52;100.00;101315.38;5042769;28;46383;-67
2021/07/20 02:58:34;;;;;;;;;0.00;0.00;;;;;27.52;100.00;101309.16;5043038;28;45348;-67
2021/07/20 03:01:00;;;;;;;;;0.00;0.00;;;;;27.56;100.00;101313.91;5042939;28;45253;-67
2021/07/20 03:03:26;;;;;;;;;0.00;0.00;;;;;27.53;100.00;101313.50;5042772;28;45359;-67
2021/07/20 03:05:54;;;;;;;;;0.00;0.00;;;;;27.52;100.00;101314.56;5042491;28;45396;-67
2021/07/20 03:08:24;;;;;;;;;0.00;0.00;;;;;27.45;100.00;101311.06;5042859;28;45313;-67
2021/07/20 03:10:52;;;;;;;;;0.00;0.00;;;;;27.43;100.00;101322.09;5042723;28;45425;-66
2021/07/20 03:13:18;;;;;;;;;0.00;0.00;;;;;27.41;100.00;101321.47;5042905;28;45398;-66
2021/07/20 03:15:43;;;;;;;;;0.00;0.00;;;;;27.31;100.00;101319.25;5042450;28;45381;-67
2021/07/20 03:18:11;;;;;;;;;0.00;0.00;;;;;27.30;100.00;101325.69;5015969;28;45186;-67
2021/07/20 03:20:39;;;;;;;;;0.00;0.00;;;;;27.39;100.00;101320.88;5042550;28;45269;-67
2021/07/20 03:23:06;;;;;;;;;0.00;0.00;;;;;27.18;100.00;101316.59;5024248;28;45345;-68
2021/07/20 03:25:32;;;;;;;;;0.00;0.00;;;;;27.09;100.00;101315.19;5042310;28;46655;-68
2021/07/20 03:27:59;;;;;;;;;1.00;0.00;;;;;27.07;100.00;101314.56;5042132;28;45344;-68
2021/07/20 03:30:29;;;;;;;;;0.00;0.00;;;;;27.07;100.00;101312.69;5020717;28;45480;-68
2021/07/20 03:32:55;;;;;;;;;0.00;0.00;;;;;26.98;100.00;101309.41;5022248;28;45450;-67
2021/07/20 03:35:22;;;;;;;;;0.00;0.00;;;;;26.97;100.00;101310.44;5022251;28;45611;-66
2021/07/20 03:37:48;;;;;;;;;0.00;0.00;;;;;26.95;100.00;101319.78;5021707;28;45240;-67
2021/07/20 03:40:14;;;;;;;;;0.00;0.00;;;;;27.06;100.00;101316.41;5022284;28;45481;-67
2021/07/20 03:42:40;;;;;;;;;0.00;0.00;;;;;26.90;100.00;101315.03;5022253;28;45529;-67
2021/07/20 03:45:08;;;;;;;;;0.00;0.00;;;;;26.88;100.00;101319.81;5022070;28;45289;-67
2021/07/20 03:47:35;;;;;;;;;0.00;0.00;;;;;26.84;100.00;101320.47;5021936;28;45434;-67
2021/07/20 03:50:03;;;;;;;;;0.00;0.00;;;;;26.78;100.00;101327.53;5022328;28;45366;-67
2021/07/20 03:52:30;;;;;;;;;0.00;0.00;;;;;26.94;100.00;101321.66;5021991;28;45611;-67
2021/07/20 03:54:55;;;;;;;;;0.00;0.00;;;;;26.76;100.00;101321.50;5021991;28;46584;-68
2021/07/20 03:57:22;;;;;;;;;0.00;0.00;;;;;26.72;100.00;101314.91;5021473;28;45267;-67
2021/07/20 03:59:50;;;;;;;;;0.00;0.00;;;;;26.71;100.00;101324.84;5021019;28;45418;-67
2021/07/20 04:02:21;;;;;;;;;0.00;0.00;;;;;26.75;100.00;101330.66;5021879;28;45335;-68
2021/07/20 04:04:49;;;;;;;;;0.00;0.00;;;;;26.71;100.00;101321.34;5020498;28;47316;-67
2021/07/20 04:07:18;;;;;;;;;0.00;0.00;;;;;26.65;100.00;101328.38;5021572;28;45260;-67
2021/07/20 04:09:48;;;;;;;;;0.00;0.00;;;;;26.62;100.00;101328.81;5021955;28;45375;-67
2021/07/20 04:12:14;;;;;;;;;0.00;0.00;;;;;26.60;100.00;101330.91;5022027;28;45400;-69
2021/07/20 04:14:42;;;;;;;;;0.00;0.00;;;;;26.57;100.00;101334.03;5021301;28;45471;-68
2021/07/20 04:17:11;;;;;;;;;0.00;0.00;;;;;26.54;100.00;101337.94;5014386;28;45524;-68
2021/07/20 04:19:36;;;;;;;;;0.00;0.00;;;;;26.54;100.00;101332.56;5016076;28;45225;-68
2021/07/20 04:22:03;;;;;;;;;0.00;0.00;;;;;26.54;100.00;101332.56;5021945;28;45292;-68
2021/07/20 04:24:29;;;;;;;;;0.00;0.00;;;;;26.57;100.00;101344.78;5021593;28;46258;-69
2021/07/20 04:26:57;;;;;;;;;0.00;0.00;;;;;26.55;100.00;101347.66;5021630;28;45349;-66
2021/07/20 04:29:22;;;;;;;;;0.00;0.00;;;;;26.56;100.00;101343.13;5021509;28;45391;-68
2021/07/20 04:31:49;;;;;;;;;0.00;0.00;;;;;26.78;100.00;101347.22;5040805;28;45321;-67
2021/07/20 04:34:15;;;;;;;;;0.00;0.00;;;;;26.59;100.00;101340.84;5039792;28;46975;-67
2021/07/20 04:36:42;;;;;;;;;0.00;0.00;;;;;26.60;100.00;101333.59;5023110;28;46290;-67
2021/07/20 04:39:10;;;;;;;;;0.00;0.00;;;;;26.91;100.00;101335.59;5041136;28;45422;-68
2021/07/20 04:41:37;;;;;;;;;0.00;0.00;;;;;27.08;100.00;101352.09;5041468;28;45277;-68
2021/07/20 04:44:02;;;;;;;;;0.00;0.00;;;;;27.06;100.00;101340.69;5040955;28;46211;-67
2021/07/20 04:46:28;;;;;;;;;0.00;0.00;;;;;27.28;100.00;101338.56;5041280;28;45300;-68
2021/07/20 04:48:53;;;;;;;;;0.00;0.00;;;;;27.28;100.00;101343.09;5041130;28;45269;-68
2021/07/20 04:51:19;;;;;;;;;0.00;0.00;;;;;27.28;100.00;101346.66;5041293;28;45619;-69
2021/07/20 04:53:45;;;;;;;;;0.00;0.00;;;;;27.36;100.00;101346.38;5041157;28;45459;-67
2021/07/20 04:56:11;;;;;;;;;0.00;0.00;;;;;26.99;100.00;101345.28;5041215;28;45268;-68
2021/07/20 04:58:38;;;;;;;;;0.00;0.00;;;;;26.85;100.00;101344.50;5041135;28;45319;-67
2021/07/20 05:01:04;;;;;;;;;0.00;0.00;;;;;26.93;100.00;101349.69;5040998;28;45507;-67
2021/07/20 05:03:32;;;;;;;;;0.00;0.00;;;;;26.97;100.00;101352.75;5040789;28;46163;-68
2021/07/20 05:05:58;;;;;;;;;0.00;0.00;;;;;26.94;100.00;101353.19;5040739;28;45363;-67
2021/07/20 05:08:27;;;;;;;;;0.00;0.00;;;;;26.90;100.00;101354.66;5040851;28;45673;-69
2021/07/20 05:10:55;;;;;;;;;0.00;0.00;;;;;26.96;100.00;101360.03;5042189;28;45273;-67
2021/07/20 05:13:22;;;;;;;;;0.00;0.00;;;;;27.04;99.90;101355.41;5044087;28;45333;-68
2021/07/20 05:15:56;;;;;;;;;0.00;0.00;;;;;27.01;99.93;101359.38;5044035;28;45423;-66
2021/07/20 05:18:23;;;;;;;;;0.00;0.00;;;;;27.07;98.67;101360.41;5031263;28;45382;-67
2021/07/20 05:20:50;;;;;;;;;0.00;0.00;;;;;27.07;98.18;101357.72;5044080;28;45469;-68
2021/07/20 05:23:18;;;;;;;;;0.00;0.00;;;;;27.09;98.82;101356.44;5043373;28;46527;-67
2021/07/20 05:25:47;;;;;;;;;0.00;0.00;;;;;27.11;97.88;101362.47;5043934;28;45254;-67
2021/07/20 05:28:14;;;;;;;;;0.00;0.00;;;;;27.09;97.61;101361.84;5043913;28;45197;-67
2021/07/20 05:30:41;;;;;;;;;0.00;0.00;;;;;27.17;97.07;101363.44;5043699;28;45276;-67
2021/07/20 05:33:08;;;;;;;;;0.00;0.00;;;;;27.18;96.20;101368.63;5043717;28;45336;-67
2021/07/20 05:35:34;;;;;;;;;0.00;0.00;;;;;27.25;96.72;101368.63;5044138;28;45363;-67
2021/07/20 05:38:01;;;;;;;;;0.00;0.00;;;;;27.26;95.49;101367.63;5043254;28;45283;-67
2021/07/20 05:40:27;;;;;;;;;0.00;0.00;;;;;27.23;95.55;101364.50;5044113;28;45534;-68
2021/07/20 05:42:55;;;;;;;;;0.00;0.00;;;;;27.29;94.72;101372.56;5043266;28;45375;-68
2021/07/20 05:45:21;;;;;;;;;0.00;0.00;;;;;27.46;94.43;101372.06;5043241;28;45291;-67
2021/07/20 05:47:49;;;;;;;;;0.00;0.00;;;;;27.56;93.95;101372.41;5043653;28;45471;-68
2021/07/20 05:50:16;;;;;;;;;0.00;0.00;;;;;27.66;93.70;101372.78;5025909;28;45290;-68
2021/07/20 05:52:44;;;;;;;;;3.25;2.00;;;;;27.70;92.15;101373.19;5043157;28;46501;-67
2021/07/20 05:55:13;;;;;;;;;0.00;0.00;;;;;27.75;90.43;101386.84;5025273;28;45852;-68
2021/07/20 05:57:40;;;;;;;;;0.00;0.00;;;;;27.81;89.18;101380.56;5006025;28;45358;-67
2021/07/20 06:00:10;;;;;;;;;0.00;0.00;;;;;27.85;87.93;101384.53;5037307;28;45567;-68
2021/07/20 06:02:39;;;;;;;;;0.00;0.00;;;;;27.93;88.60;101388.84;5043554;28;45164;-67
2021/07/20 06:05:06;;;;;;;;;2.00;2.00;;;;;27.87;84.87;101385.13;5025150;28;45346;-67
2021/07/20 06:07:32;;;;;;;;;0.00;0.00;;;;;28.08;86.10;101394.75;5054290;28;45398;-68
2021/07/20 06:09:58;;;;;;;;;0.00;0.00;;;;;28.29;85.09;101387.28;5025250;28;45542;-68
2021/07/20 06:12:25;;;;;;;;;0.00;0.00;;;;;28.57;83.82;101386.84;5043126;28;45484;-67
2021/07/20 06:14:51;;;;;;;;;0.00;0.00;;;;;28.49;83.07;101392.53;5042869;28;45343;-68
2021/07/20 06:17:19;;;;;;;;;0.00;0.00;;;;;28.79;82.72;101389.94;5034528;28;45172;-68
2021/07/20 06:19:45;;;;;;;;;0.00;0.00;;;;;29.17;81.85;101392.47;5038864;28;45319;-68
2021/07/20 06:22:11;;;;;;;;;0.00;0.00;;;;;30.08;79.00;101387.03;5023833;28;46924;-67
2021/07/20 06:24:45;;;;;;;;;0.00;0.00;;;;;30.23;79.38;101384.69;5053680;28;45683;-67
2021/07/20 06:27:15;;;;;;;;;0.00;0.00;;;;;30.54;77.44;101385.44;5043137;28;45305;-67
2021/07/20 06:29:43;;;;;;;;;0.00;0.00;;;;;30.80;74.76;101388.69;5024120;28;45572;-67
2021/07/20 06:32:10;;;;;;;;;0.00;0.00;;;;;31.12;70.75;101391.03;5042811;28;45399;-68
2021/07/20 06:34:37;;;;;;;;;0.00;0.00;;;;;31.38;71.34;101393.19;5042431;28;45539;-68
2021/07/20 06:37:04;;;;;;;;;0.00;0.00;;;;;31.60;72.69;101392.50;5024084;28;45262;-68
2021/07/20 06:39:31;;;;;;;;;0.00;0.00;;;;;31.97;72.30;101392.09;5042384;28;45529;-71
2021/07/20 06:41:58;;;;;;;;;0.00;0.00;;;;;32.31;70.17;101397.53;5042526;28;45331;-67
2021/07/20 06:44:24;;;;;;;;;0.00;0.00;;;;;32.64;68.02;101396.69;5024306;28;45976;-71
2021/07/20 06:46:50;;;;;;;;;0.00;0.00;;;;;32.87;59.71;101398.34;5042582;28;45285;-69
2021/07/20 06:49:18;;;;;;;;;0.00;0.00;;;;;33.02;66.58;101397.72;5043023;28;45351;-71
2021/07/20 06:51:44;;;;;;;;;0.00;0.00;;;;;33.19;65.04;101390.31;5041991;28;46256;-69
2021/07/20 06:54:09;;;;;;;;;0.00;0.00;;;;;33.39;63.69;101395.19;5024017;28;45659;-68
2021/07/20 06:56:56;;;;;;;;;0.00;0.00;;;;;33.51;58.48;101404.00;5042249;28;45174;-68
2021/07/20 06:59:26;;;;;;;;;0.00;0.00;;;;;33.47;58.19;101399.34;5042354;28;45512;-68
2021/07/20 07:01:52;;;;;;;;;0.00;0.00;;;;;33.34;58.12;101400.56;5041846;28;46204;-68
2021/07/20 07:04:33;;;;;;;;;0.00;0.00;;;;;33.48;61.91;101403.72;5042088;28;45205;-68
2021/07/20 07:06:59;;;;;;;;;0.00;0.00;;;;;33.73;60.95;101410.53;5023983;28;45256;-68
2021/07/20 07:09:27;;;;;;;;;0.00;0.00;;;;;33.79;58.96;101398.59;5042354;28;45329;-68
2021/07/20 07:11:53;;;;;;;;;0.00;0.00;;;;;33.89;57.48;101402.22;5041424;28;46584;-67
2021/07/20 07:14:19;;;;;;;;;0.00;0.00;;;;;34.01;57.01;101404.78;5041093;28;45189;-67
2021/07/20 07:16:47;;;;;;;;;0.00;0.00;;;;;34.45;55.73;101415.50;5037078;28;45238;-69
2021/07/20 07:19:19;;;;;;;;;0.00;0.00;;;;;34.37;53.40;101418.72;5021508;28;45516;-68
2021/07/20 07:21:46;;;;;;;;;0.00;0.00;;;;;34.31;54.83;101423.28;5039214;28;45381;-67
2021/07/20 07:24:14;;;;;;;;;0.00;0.00;;;;;34.24;55.15;101416.44;5040963;28;45181;-68
2021/07/20 07:26:41;;;;;;;;;0.00;0.00;;;;;34.14;52.17;101419.91;5042820;28;45343;-67
2021/07/20 07:29:09;;;;;;;;;0.00;0.00;;;;;34.56;53.91;101423.72;5041270;28;45815;-67
2021/07/20 07:31:35;;;;;;;;;0.00;0.00;;;;;34.23;53.53;101423.78;5040613;28;45337;-68
2021/07/20 07:34:01;;;;;;;;;0.00;0.00;;;;;34.21;53.19;101419.66;5041200;28;45280;-68
2021/07/20 07:36:28;;;;;;;;;0.00;0.00;;;;;34.32;51.92;101432.28;5041122;28;45241;-67
2021/07/20 07:38:54;;;;;;;;;0.00;0.00;;;;;34.52;51.96;101420.72;5040895;28;45416;-67
2021/07/20 07:41:22;;;;;;;;;0.00;0.00;;;;;34.87;52.36;101422.84;5040977;28;45413;-68
2021/07/20 07:43:50;;;;;;;;;0.00;0.00;;;;;35.29;52.19;101427.41;5040884;28;45512;-68
2021/07/20 07:46:18;;;;;;;;;0.00;0.00;;;;;36.03;48.54;101425.34;5040450;28;45259;-67
2021/07/20 07:48:44;;;;;;;;;0.00;0.00;;;;;35.88;47.15;101428.91;5041284;28;45458;-68
2021/07/20 07:51:10;;;;;;;;;0.00;0.00;;;;;36.03;45.59;101428.09;5040125;28;45364;-68
2021/07/20 07:53:37;;;;;;;;;0.00;0.00;;;;;36.10;46.03;101430.53;5040763;28;45302;-69
2021/07/20 07:56:04;;;;;;;;;0.00;0.00;;;;;36.31;43.18;101423.19;5040786;28;45211;-68
2021/07/20 07:58:31;;;;;;;;;0.00;0.00;;;;;36.62;43.42;101428.59;5025567;28;45398;-67
2021/07/20 08:00:59;;;;;;;;;0.00;0.00;;;;;36.95;43.09;101430.66;5040725;28;46864;-68
2021/07/20 08:03:35;;;;;;;;;0.00;0.00;;;;;37.11;40.66;101434.19;5041090;28;45357;-68
2021/07/20 08:06:03;;;;;;;;;0.00;0.00;;;;;37.15;41.65;101440.75;5040907;28;45533;-68
2021/07/20 08:08:31;;;;;;;;;0.00;0.00;;;;;37.90;40.27;101437.00;5023175;28;45268;-68
2021/07/20 08:10:57;;;;;;;;;0.00;0.00;;;;;37.70;39.04;101432.50;5040766;28;46438;-68
2021/07/20 08:13:24;;;;;;;;;0.25;0.25;;;;;37.87;39.24;101434.84;5040610;28;45324;-68
2021/07/20 08:15:51;;;;;;;;;0.00;0.00;;;;;38.14;38.40;101430.78;5023662;28;45313;-67
2021/07/20 08:18:22;;;;;;;;;0.00;0.00;;;;;38.39;38.98;101421.50;5040944;28;45410;-68
2021/07/20 08:20:53;;;;;;;;;0.00;0.00;;;;;38.60;35.90;101427.63;5040507;28;46549;-68
2021/07/20 08:23:19;;;;;;;;;0.00;0.00;;;;;39.12;37.40;101423.16;5041115;28;46448;-68
2021/07/20 08:25:51;;;;;;;;;0.00;0.00;;;;;39.39;35.69;101421.69;5041213;28;45316;-67
2021/07/20 08:28:43;;;;;;;;;0.00;0.00;;;;;39.55;35.15;101428.63;5041154;28;45296;-68
2021/07/20 08:31:12;;;;;;;;;0.00;0.00;;;;;39.42;35.65;101429.38;5040587;28;46638;-68
2021/07/20 08:33:39;;;;;;;;;0.00;0.00;;;;;39.71;35.20;101431.94;5022601;28;45276;-68
2021/07/20 08:36:09;;;;;;;;;1.00;1.00;;;;;39.75;33.61;101426.66;5040489;28;45244;-68
2021/07/20 08:38:35;;;;;;;;;2.25;0.75;;;;;39.86;31.40;101430.09;5041057;28;45411;-70
2021/07/20 08:41:09;;;;;;;;;0.00;0.00;;;;;39.64;33.10;101427.94;5022125;28;47197;-67
2021/07/20 08:43:55;;;;;;;;;0.00;0.00;;;;;39.60;33.89;101427.72;5040469;28;45329;-67
2021/07/20 08:46:33;;;;;;;;;0.00;0.00;;;;;39.70;32.10;101437.72;5040720;28;45404;-67
2021/07/20 08:49:22;;;;;;;;;0.00;0.00;;;;;39.41;33.00;101429.66;5040947;28;45442;-67
2021/07/20 08:52:02;;;;;;;;;0.00;0.00;;;;;39.62;34.34;101435.66;5040398;28;45572;-68
2021/07/20 08:54:29;;;;;;;;;0.00;0.00;;;;;39.84;33.03;101435.06;5040944;28;45392;-68
2021/07/20 08:57:00;;;;;;;;;0.00;0.00;;;;;39.87;32.22;101424.25;5040687;28;45288;-67
2021/07/20 08:59:38;;;;;;;;;0.00;0.00;;;;;39.88;31.26;101427.84;5040863;28;45276;-67
2021/07/20 09:02:17;;;;;;;;;0.00;0.00;;;;;39.87;32.57;101438.00;5022558;28;47175;-67
2021/07/20 09:04:56;;;;;;;;;0.00;0.00;;;;;40.83;32.55;101430.25;5040038;28;45536;-68
2021/07/20 09:07:28;;;;;;;;;0.00;0.00;;;;;42.06;28.69;101439.31;5021837;28;45348;-68
2021/07/20 09:09:57;;;;;;;;;0.00;0.00;;;;;43.36;28.28;101438.13;5040256;28;45375;-68
2021/07/20 09:12:28;;;;;;;;;0.00;0.00;;;;;44.64;26.55;101439.31;5040511;28;46468;-68
2021/07/20 09:15:00;;;;;;;;;0.00;0.00;;;;;46.01;26.15;101431.44;5040343;28;45433;-67
2021/07/20 09:17:30;;;;;;;;;0.00;0.00;;;;;46.93;24.02;101435.63;5031785;28;45245;-67
2021/07/20 09:20:04;;;;;;;;;0.00;0.00;;;;;47.52;22.84;101431.44;5036872;28;45230;-67
2021/07/20 09:22:45;;;;;;;;;0.00;0.00;;;;;47.70;22.40;101433.88;5039994;28;48012;-68
2021/07/20 09:25:16;;;;;;;;;0.00;0.00;;;;;47.68;22.88;101436.22;5040318;28;45308;-68
2021/07/20 09:28:00;;;;;;;;;0.00;0.00;;;;;46.59;21.89;101431.34;5022478;28;45327;-68
2021/07/20 09:30:30;;;;;;;;;0.00;0.00;;;;;45.44;22.72;101436.50;5021730;28;45660;-67
2021/07/20 09:33:21;;;;;;;;;3.00;0.00;;;;;45.31;25.07;101436.81;5040075;28;45635;-68
2021/07/20 09:35:58;;;;;;;;;0.00;0.00;;;;;45.36;23.90;101431.03;5030361;28;45501;-67
2021/07/20 09:38:39;;;;;;;;;0.25;0.00;;;;;45.69;25.30;101433.88;5040040;28;45335;-68
2021/07/20 09:41:24;;;;;;;;;0.00;0.00;;;;;46.77;23.70;101441.09;5040178;28;45532;-68
2021/07/20 09:44:25;;;;;;;;;0.00;0.00;;;;;47.90;21.87;101432.06;5022070;28;47214;-68
2021/07/20 09:47:18;;;;;;;;;0.00;0.00;;;;;49.47;21.73;101437.69;5039849;28;45225;-68
2021/07/20 09:49:58;;;;;;;;;0.00;0.00;;;;;50.86;20.79;101436.44;5021890;28;45494;-68
2021/07/20 09:52:42;;;;;;;;;0.00;0.00;;;;;52.37;17.32;101426.81;5036015;28;45450;-67
2021/07/20 09:55:25;;;;;;;;;0.00;0.00;;;;;53.60;16.93;101426.16;5039533;28;45545;-67
2021/07/20 09:58:28;;;;;;;;;0.00;0.00;;;;;53.89;17.27;101437.44;5040264;28;45501;-67
2021/07/20 10:01:18;;;;;;;;;0.00;0.00;;;;;54.50;15.41;101435.41;5001189;28;45279;-67
2021/07/20 10:04:01;;;;;;;;;0.00;0.00;;;;;54.70;15.83;101435.72;5043220;28;45645;-67
2021/07/20 10:06:49;;;;;;;;;0.00;0.00;;;;;55.19;15.71;101430.34;5024427;28;47320;-67
2021/07/20 10:09:35;;;;;;;;;1.75;1.75;;;;;54.58;16.24;101435.38;5042635;28;45311;-68
2021/07/20 10:12:06;;;;;;;;;0.00;0.00;;;;;53.89;15.96;101424.22;5042895;28;45300;-68
2021/07/20 10:15:06;;;;;;;;;0.00;0.00;;;;;53.34;16.70;101423.72;5043380;28;45163;-68
2021/07/20 10:17:51;;;;;;;;;0.00;0.00;;;;;52.55;16.76;101415.72;5041416;28;47386;-68
2021/07/20 10:20:22;;;;;;;;;0.75;0.00;;;;;51.58;17.18;101414.91;5042417;28;45345;-68
2021/07/20 10:23:17;;;;;;;;;0.00;0.00;;;;;50.78;18.41;101417.94;5024443;28;45470;-68
2021/07/20 10:25:47;;;;;;;;;3.00;0.00;;;;;50.75;17.67;101412.34;5043045;28;45213;-68
2021/07/20 10:28:28;;;;;;;;;0.00;0.00;;;;;50.83;18.27;101397.25;5042161;28;46858;-68
2021/07/20 10:31:03;;;;;;;;;0.00;0.00;;;;;51.07;18.05;101405.13;5042095;28;45410;-68
2021/07/20 10:33:40;;;;;;;;;0.00;0.00;;;;;51.38;17.94;101399.50;5043112;28;45346;-68
2021/07/20 10:36:13;;;;;;;;;0.00;0.00;;;;;51.24;17.62;101391.78;5042030;28;45388;-67
2021/07/20 10:39:08;;;;;;;;;0.00;0.00;;;;;51.87;16.93;101395.63;5042290;28;46318;-68
2021/07/20 10:41:43;;;;;;;;;0.00;0.00;;;;;52.47;16.16;101391.69;5030587;28;45286;-68
2021/07/20 10:44:19;;;;;;;;;0.00;0.00;;;;;52.94;15.77;101392.69;5042035;28;45505;-67
2021/07/20 10:46:49;;;;;;;;;0.00;0.00;;;;;54.01;16.16;101394.91;5042713;28;45471;-70
2021/07/20 10:49:24;;;;;;;;;0.00;0.00;;;;;54.57;14.39;101386.78;5041662;28;46402;-67
2021/07/20 10:52:01;;;;;;;;;1.00;1.00;;;;;54.41;14.13;101394.81;5041705;28;45584;-68
2021/07/20 10:54:31;;;;;;;;;0.00;0.00;;;;;53.23;14.03;101392.81;5042296;28;45183;-68
2021/07/20 10:57:01;;;;;;;;;0.00;0.00;;;;;52.46;15.44;101379.63;5041868;28;45455;-69
2021/07/20 10:59:45;;;;;;;;;0.00;0.00;;;;;51.84;15.92;101374.81;5041483;28;46464;-67
2021/07/20 11:02:37;;;;;;;;;0.00;0.00;;;;;50.86;16.24;101385.31;5041021;28;45292;-68
2021/07/20 11:05:08;;;;;;;;;0.00;0.00;;;;;49.00;17.20;101372.56;5041219;28;45505;-69
2021/07/20 11:07:45;;;;;;;;;0.00;0.00;;;;;48.28;18.31;101375.75;5041149;28;45346;-70
2021/07/20 11:10:33;;;;;;;;;0.00;0.00;;;;;47.81;18.69;101377.31;5041077;28;46167;-68
2021/07/20 11:13:13;;;;;;;;;0.00;0.00;;;;;46.94;19.15;101370.53;5041750;28;45245;-68
2021/07/20 11:15:41;;;;;;;;;0.00;0.00;;;;;46.45;19.66;101374.19;5041677;28;45433;-69
2021/07/20 11:18:11;;;;;;;;;0.00;0.00;;;;;46.65;19.60;101366.84;5027981;28;45193;-68
2021/07/20 11:20:37;;;;;;;;;0.00;0.00;;;;;47.48;20.24;101369.28;5041372;28;46502;-68
2021/07/20 11:23:05;;;;;;;;;0.00;0.00;;;;;48.90;18.89;101369.53;5041907;28;45510;-68
2021/07/20 11:25:33;;;;;;;;;0.00;0.00;;;;;50.17;17.86;101374.31;5041979;28;45323;-68
2021/07/20 11:28:00;;;;;;;;;0.00;0.00;;;;;51.99;16.91;101370.06;5041562;28;45545;-68
2021/07/20 11:30:30;;;;;;;;;0.00;0.00;;;;;53.60;16.31;101375.63;5022512;28;46225;-68
2021/07/20 11:33:05;;;;;;;;;0.00;0.00;;;;;54.14;14.89;101372.81;5041098;28;45344;-68
2021/07/20 11:35:39;;;;;;;;;0.00;0.00;;;;;53.62;13.77;101376.03;5040671;28;45354;-68
2021/07/20 11:38:09;;;;;;;;;0.00;0.00;;;;;52.64;14.91;101376.94;5041381;28;45404;-69
2021/07/20 11:41:09;;;;;;;;;0.00;0.00;;;;;50.87;15.24;101368.16;5041378;28;45329;-68
2021/07/20 11:44:01;;;;;;;;;0.00;0.00;;;;;49.13;17.17;101369.66;5009498;28;45293;-68